Nestor — V2FB3 — position and weather

sailwx.info

Track history (hours):
 
Tides and Currents Weather Stations Pressure Air Temp Water Temp Dewpoint Dewpoint Depression Visibility Wind Speed Wind Dir Waves Ship Positions

Nestor

Last reported at 2014-Jul-31 20:33 UTC. Time now 2014-Jul-31 23:45 UTC.
Position N 36°39' E 014°26'.

Length 88 m; draft 5 m.

Type: Cargo ship. MMSI: 305620000.

Date/timePositionNaut miles runAvg speedWind from/ knotsBaromVisibWave heightAir tempDewpointWater temp
2014-Jul-31 20:33N 36°39' E 014°26'9 8.6
2014-Jul-31 19:33N 36°42' E 014°16'8 8.4
2014-Jul-31 18:33N 36°45' E 014°06'8 8.5
2014-Jul-31 17:33N 36°47' E 013°56'8 8.3
2014-Jul-31 16:33N 36°49' E 013°46'9 8.4
2014-Jul-31 15:32N 36°50' E 013°35'8 8.3
2014-Jul-31 14:33N 36°53' E 013°25'8 8.3
2014-Jul-31 13:34N 36°55' E 013°15'9 8.1
2014-Jul-31 12:30N 36°56' E 013°05'  
2014-Jul-28 23:33N 40°44' E 003°28'9 8.9
2014-Jul-28 22:33N 40°49' E 003°17'9 8.8
2014-Jul-28 21:33N 40°53' E 003°07'9 8.8
2014-Jul-28 20:32N 40°57' E 002°57'9 8.4
2014-Jul-28 19:32N 41°02' E 002°47'8 8.5
2014-Jul-28 18:33N 41°06' E 002°38'26 1.7
2014-Jul-28 03:26N 41°21' E 002°09'0 0.0
2014-Jul-28 02:14N 41°21' E 002°09'0 0.0
2014-Jul-27 21:32N 41°21' E 002°09'0 0.0
2014-Jul-27 18:26N 41°21' E 002°09'33 3.3
2014-Jul-27 08:32N 41°18' E 002°52'8 7.8
2014-Jul-27 07:34N 41°18' E 003°02'8 7.6
2014-Jul-27 06:33N 41°17' E 003°12'8 8.1
2014-Jul-27 05:33N 41°17' E 003°23'8 8.1
2014-Jul-27 04:32N 41°17' E 003°34'8 8.3
2014-Jul-27 03:33N 41°18' E 003°45'10 8.6
2014-Jul-27 02:26N 41°18' E 003°58'41 8.3
2014-Jul-26 21:29N 41°18' E 004°53'11 8.1
2014-Jul-26 20:05N 41°18' E 005°08'21 8.3
2014-Jul-26 17:32N 41°18' E 005°36'9 8.3
2014-Jul-26 16:27N 41°18' E 005°48'90 8.1
2014-Jul-26 05:23N 41°19' E 007°48'102 9.3
2014-Jul-25 18:32N 41°35' E 010°01'1111.0
2014-Jul-25 17:33N 41°39' E 010°15'  
Track history (hours):
 
Tides and Currents Weather Stations Pressure Air Temp Water Temp Dewpoint Dewpoint Depression Visibility Wind Speed Wind Dir Waves Ship Positions

Nestor

Last reported at 2014-Jul-31 20:33 UTC. Time now 2014-Jul-31 23:45 UTC.
Position N 36°39' E 014°26'.

Length 88 m; draft 5 m.

Type: Cargo ship. MMSI: 305620000.

Date/timePositionNaut miles runAvg speedWind from/ knotsBaromVisibWave heightAir tempDewpointWater temp
2014-Jul-31 20:33N 36°39' E 014°26'9 8.6
2014-Jul-31 19:33N 36°42' E 014°16'8 8.4
2014-Jul-31 18:33N 36°45' E 014°06'8 8.5
2014-Jul-31 17:33N 36°47' E 013°56'8 8.3
2014-Jul-31 16:33N 36°49' E 013°46'9 8.4
2014-Jul-31 15:32N 36°50' E 013°35'8 8.3
2014-Jul-31 14:33N 36°53' E 013°25'8 8.3
2014-Jul-31 13:34N 36°55' E 013°15'9 8.1
2014-Jul-31 12:30N 36°56' E 013°05'  
2014-Jul-28 23:33N 40°44' E 003°28'9 8.9
2014-Jul-28 22:33N 40°49' E 003°17'9 8.8
2014-Jul-28 21:33N 40°53' E 003°07'9 8.8
2014-Jul-28 20:32N 40°57' E 002°57'9 8.4
2014-Jul-28 19:32N 41°02' E 002°47'8 8.5
2014-Jul-28 18:33N 41°06' E 002°38'26 1.7
2014-Jul-28 03:26N 41°21' E 002°09'0 0.0
2014-Jul-28 02:14N 41°21' E 002°09'0 0.0
2014-Jul-27 21:32N 41°21' E 002°09'0 0.0
2014-Jul-27 18:26N 41°21' E 002°09'33 3.3
2014-Jul-27 08:32N 41°18' E 002°52'8 7.8
2014-Jul-27 07:34N 41°18' E 003°02'8 7.6
2014-Jul-27 06:33N 41°17' E 003°12'8 8.1
2014-Jul-27 05:33N 41°17' E 003°23'8 8.1
2014-Jul-27 04:32N 41°17' E 003°34'8 8.3
2014-Jul-27 03:33N 41°18' E 003°45'10 8.6
2014-Jul-27 02:26N 41°18' E 003°58'41 8.3
2014-Jul-26 21:29N 41°18' E 004°53'11 8.1
2014-Jul-26 20:05N 41°18' E 005°08'21 8.3
2014-Jul-26 17:32N 41°18' E 005°36'9 8.3
2014-Jul-26 16:27N 41°18' E 005°48'90 8.1
2014-Jul-26 05:23N 41°19' E 007°48'102 9.3
2014-Jul-25 18:32N 41°35' E 010°01'1111.0
2014-Jul-25 17:33N 41°39' E 010°15'  

Dump ship's entire track history